createdAt,value
2023-09-05T00:00:53.750Z,16.90
2023-09-05T00:03:58.380Z,16.98
2023-09-05T00:07:01.170Z,16.91
2023-09-05T00:10:09.294Z,17.01
2023-09-05T00:13:12.338Z,16.80
2023-09-05T00:16:15.388Z,16.91
2023-09-05T00:19:18.347Z,16.91
2023-09-05T00:22:21.310Z,16.81
2023-09-05T00:25:23.961Z,16.79
2023-09-05T00:28:26.982Z,16.77
2023-09-05T00:31:29.658Z,16.69
2023-09-05T00:34:34.376Z,16.75
2023-09-05T00:37:38.372Z,16.71
2023-09-05T00:40:41.403Z,16.69
2023-09-05T00:43:44.032Z,16.61
2023-09-05T00:46:48.327Z,16.57
2023-09-05T00:49:51.353Z,16.57
2023-09-05T00:52:54.392Z,16.42
2023-09-05T00:55:57.206Z,16.47
2023-09-05T00:59:00.529Z,16.41
2023-09-05T01:02:03.125Z,16.39
2023-09-05T01:05:08.283Z,16.51
2023-09-05T01:08:17.156Z,16.37
2023-09-05T01:11:20.278Z,16.40
2023-09-05T01:14:22.913Z,16.41
2023-09-05T01:17:25.861Z,16.39
2023-09-05T01:20:38.236Z,16.39
2023-09-05T01:23:49.781Z,16.51
2023-09-05T01:26:54.410Z,16.30
2023-09-05T01:29:57.912Z,16.30
2023-09-05T01:33:00.604Z,16.26
2023-09-05T01:36:03.896Z,16.04
2023-09-05T01:39:07.057Z,16.02
2023-09-05T01:42:10.162Z,16.08
2023-09-05T01:45:12.842Z,15.98
2023-09-05T01:48:15.936Z,15.88
2023-09-05T01:51:18.554Z,15.97
2023-09-05T01:54:21.490Z,15.83
2023-09-05T01:57:24.151Z,15.91
2023-09-05T02:00:27.126Z,15.88
2023-09-05T02:03:30.337Z,15.75
2023-09-05T02:06:33.201Z,15.71
2023-09-05T02:09:36.645Z,15.76
2023-09-05T02:12:39.362Z,15.80
2023-09-05T02:15:44.216Z,15.72
2023-09-05T02:18:48.458Z,15.61
2023-09-05T02:21:51.473Z,15.63
2023-09-05T02:24:54.351Z,15.41
2023-09-05T02:27:57.324Z,15.43
2023-09-05T02:31:06.234Z,15.36
2023-09-05T02:34:09.663Z,15.18
2023-09-05T02:37:13.229Z,15.15
2023-09-05T02:40:16.383Z,15.10
2023-09-05T02:43:19.041Z,15.18
2023-09-05T02:46:22.520Z,15.24
2023-09-05T02:49:25.265Z,15.24
2023-09-05T02:52:38.098Z,15.21
2023-09-05T02:55:48.354Z,15.40
2023-09-05T02:58:51.287Z,15.34
2023-09-05T03:01:54.013Z,15.30
2023-09-05T03:04:56.970Z,15.19
2023-09-05T03:07:59.648Z,15.01
2023-09-05T03:11:02.635Z,14.92
2023-09-05T03:14:05.545Z,15.15
2023-09-05T03:17:11.014Z,15.15
2023-09-05T03:20:16.878Z,15.18
2023-09-05T03:23:20.315Z,15.00
2023-09-05T03:26:23.316Z,14.78
2023-09-05T03:29:26.367Z,14.87
2023-09-05T03:32:29.561Z,14.73
2023-09-05T03:35:33.112Z,14.67
2023-09-05T03:38:36.191Z,14.74
2023-09-05T03:41:39.187Z,14.84
2023-09-05T03:44:42.270Z,14.81
2023-09-05T03:47:59.450Z,14.95
2023-09-05T03:51:03.167Z,14.83
2023-09-05T03:54:06.255Z,14.91
2023-09-05T03:57:09.306Z,14.73
2023-09-05T04:00:14.684Z,14.88
2023-09-05T04:03:18.645Z,14.76
2023-09-05T04:06:21.671Z,14.66
2023-09-05T04:09:24.608Z,14.70
2023-09-05T04:12:28.620Z,14.56
2023-09-05T04:15:31.692Z,14.65
2023-09-05T04:18:37.780Z,14.70
2023-09-05T04:21:43.730Z,14.57
2023-09-05T04:24:46.447Z,14.46
2023-09-05T04:27:52.166Z,14.51
2023-09-05T04:30:56.777Z,14.61
2023-09-05T04:33:59.922Z,14.54
2023-09-05T04:37:02.569Z,14.63
2023-09-05T04:40:07.337Z,14.93
2023-09-05T04:43:11.675Z,14.89
2023-09-05T04:46:15.366Z,14.91
2023-09-05T04:49:18.093Z,14.76
2023-09-05T04:52:22.609Z,14.89
2023-09-05T04:55:25.883Z,14.97
2023-09-05T04:58:30.511Z,15.13
2023-09-05T05:01:33.562Z,15.08
2023-09-05T05:04:38.667Z,15.22
2023-09-05T05:07:42.202Z,15.20
2023-09-05T05:10:45.172Z,15.47
2023-09-05T05:13:47.705Z,15.44
2023-09-05T05:16:51.190Z,15.45
2023-09-05T05:19:54.161Z,15.54
2023-09-05T05:22:57.209Z,15.58
2023-09-05T05:26:00.640Z,15.49
2023-09-05T05:29:04.120Z,15.88
2023-09-05T05:32:06.917Z,15.86
2023-09-05T05:35:10.839Z,15.83
2023-09-05T05:38:13.483Z,15.88
2023-09-05T05:41:16.600Z,15.99
2023-09-05T05:44:19.285Z,16.10
2023-09-05T05:47:23.943Z,16.25
2023-09-05T05:50:26.548Z,16.18
2023-09-05T05:53:29.762Z,16.33
2023-09-05T05:56:32.455Z,16.33
2023-09-05T05:59:35.604Z,16.27
2023-09-05T06:02:38.284Z,16.51
2023-09-05T06:05:41.228Z,16.57
2023-09-05T06:08:44.020Z,16.88
2023-09-05T06:11:47.787Z,17.07
2023-09-05T06:14:50.507Z,16.95
2023-09-05T06:17:53.751Z,17.24
2023-09-05T06:20:56.570Z,17.27
2023-09-05T06:23:59.994Z,17.49
2023-09-05T06:27:02.746Z,17.61
2023-09-05T06:30:06.437Z,17.64
2023-09-05T06:33:10.245Z,17.64
2023-09-05T06:36:13.413Z,17.60
2023-09-05T06:39:16.061Z,17.84
2023-09-05T06:42:19.145Z,17.75
2023-09-05T06:45:22.399Z,17.91
2023-09-05T06:48:25.619Z,18.10
2023-09-05T06:51:28.479Z,18.01
2023-09-05T06:54:32.069Z,18.11
2023-09-05T06:57:34.907Z,18.32
2023-09-05T07:00:37.826Z,18.26
2023-09-05T07:03:40.511Z,18.26
2023-09-05T07:06:43.498Z,18.37
2023-09-05T07:09:46.134Z,18.46
2023-09-05T07:12:49.070Z,18.75
2023-09-05T07:15:52.800Z,18.85
2023-09-05T07:18:55.827Z,18.99
2023-09-05T07:21:58.855Z,18.99
2023-09-05T07:25:02.016Z,19.06
2023-09-05T07:28:06.032Z,19.16
2023-09-05T07:31:09.775Z,19.33
2023-09-05T07:34:12.594Z,19.42
2023-09-05T07:37:17.261Z,19.49
2023-09-05T07:40:20.036Z,19.54
2023-09-05T07:43:22.968Z,19.51
2023-09-05T07:46:25.696Z,19.69
2023-09-05T07:49:28.724Z,19.93
2023-09-05T07:52:34.258Z,19.89
2023-09-05T07:55:37.279Z,20.14
2023-09-05T07:58:39.940Z,19.98
2023-09-05T08:01:43.029Z,20.36
2023-09-05T08:04:46.126Z,20.12
2023-09-05T08:07:49.092Z,20.30
2023-09-05T08:10:52.135Z,20.31
2023-09-05T08:13:57.018Z,20.59
2023-09-05T08:17:00.289Z,20.67
2023-09-05T08:20:04.520Z,21.02
2023-09-05T08:23:07.702Z,20.84
2023-09-05T08:26:12.650Z,21.18
2023-09-05T08:29:15.944Z,21.32
2023-09-05T08:32:18.666Z,21.52
2023-09-05T08:35:21.768Z,21.63
2023-09-05T08:38:27.292Z,21.47
2023-09-05T08:41:31.386Z,21.52
2023-09-05T08:44:40.450Z,21.64
2023-09-05T08:47:43.563Z,21.72
2023-09-05T08:50:46.278Z,21.84
2023-09-05T08:54:01.690Z,21.86
2023-09-05T08:57:18.438Z,21.95
2023-09-05T09:00:23.115Z,22.21
2023-09-05T09:03:27.740Z,22.38
2023-09-05T09:06:31.235Z,22.43
2023-09-05T09:09:44.595Z,22.55
2023-09-05T09:12:55.638Z,22.79
2023-09-05T09:15:59.070Z,22.81
2023-09-05T09:19:04.568Z,22.93
2023-09-05T09:22:09.465Z,23.34
2023-09-05T09:25:24.256Z,23.18
2023-09-05T09:28:33.456Z,23.10
2023-09-05T09:31:38.587Z,23.26
2023-09-05T09:34:42.459Z,23.54
2023-09-05T09:37:50.287Z,23.50
2023-09-05T09:40:53.479Z,23.37
2023-09-05T09:43:57.267Z,23.66
2023-09-05T09:47:01.889Z,23.74
2023-09-05T09:50:05.607Z,23.75
2023-09-05T09:53:12.936Z,24.24
2023-09-05T09:56:20.180Z,24.26
2023-09-05T09:59:27.911Z,24.17
2023-09-05T10:02:31.481Z,23.98
2023-09-05T10:05:34.437Z,24.17
2023-09-05T10:08:42.061Z,24.20
2023-09-05T10:11:47.075Z,24.53
2023-09-05T10:14:50.675Z,24.80
2023-09-05T10:17:55.966Z,24.91
2023-09-05T10:21:04.320Z,24.63
2023-09-05T10:24:08.201Z,24.74
2023-09-05T10:27:12.674Z,24.90
2023-09-05T10:30:15.647Z,24.94
2023-09-05T10:33:19.016Z,25.02
2023-09-05T10:36:44.229Z,24.84
2023-09-05T10:39:48.581Z,25.02
2023-09-05T10:42:56.178Z,24.70
2023-09-05T10:46:03.855Z,25.11
2023-09-05T10:49:16.004Z,25.22
2023-09-05T10:52:20.742Z,25.03
2023-09-05T10:55:26.835Z,25.40
2023-09-05T10:58:58.021Z,25.33
2023-09-05T11:02:06.401Z,25.05
2023-09-05T11:05:13.614Z,25.23
2023-09-05T11:08:24.458Z,25.39
2023-09-05T11:11:27.859Z,25.65
2023-09-05T11:14:38.658Z,25.51
2023-09-05T11:17:45.978Z,25.53
2023-09-05T11:21:00.426Z,25.25
2023-09-05T11:24:04.051Z,25.63
2023-09-05T11:27:10.433Z,25.81
2023-09-05T11:30:17.456Z,25.73
2023-09-05T11:33:20.892Z,25.78
2023-09-05T11:36:24.427Z,25.91
2023-09-05T11:39:31.067Z,26.06
2023-09-05T11:42:33.837Z,25.98
2023-09-05T11:52:20.337Z,26.04
2023-09-05T11:55:27.988Z,26.22
2023-09-05T11:58:32.192Z,26.50
2023-09-05T12:01:35.316Z,26.68
2023-09-05T12:04:39.463Z,26.82
2023-09-05T12:07:43.277Z,26.77
2023-09-05T12:10:53.396Z,26.52
2023-09-05T12:13:58.978Z,26.68
2023-09-05T12:17:02.238Z,26.47
2023-09-05T12:20:10.262Z,26.77
2023-09-05T12:23:24.580Z,25.97
2023-09-05T12:26:41.800Z,26.35
2023-09-05T12:29:46.201Z,26.66
2023-09-05T12:32:49.432Z,26.77
2023-09-05T12:35:52.700Z,26.90
2023-09-05T12:38:55.416Z,26.68
2023-09-05T12:42:00.517Z,26.90
2023-09-05T12:45:03.620Z,26.89
2023-09-05T12:48:08.768Z,27.05
2023-09-05T12:51:12.968Z,26.74
2023-09-05T12:54:16.164Z,27.20
2023-09-05T12:57:18.962Z,27.02
2023-09-05T13:00:22.307Z,26.97
2023-09-05T13:03:26.975Z,27.06
2023-09-05T13:06:30.673Z,27.26
2023-09-05T13:09:34.104Z,27.13
2023-09-05T13:12:37.475Z,27.29
2023-09-05T13:15:44.693Z,27.14
2023-09-05T13:18:47.873Z,27.26
2023-09-05T13:21:50.662Z,27.12
2023-09-05T13:24:53.753Z,26.40
2023-09-05T13:27:56.577Z,26.39
2023-09-05T13:31:00.101Z,26.94
2023-09-05T13:34:02.991Z,27.33
2023-09-05T13:37:06.128Z,26.94
2023-09-05T13:40:09.513Z,27.19
2023-09-05T13:43:13.925Z,27.01
2023-09-05T13:46:16.750Z,26.65
2023-09-05T13:49:20.349Z,26.26
2023-09-05T13:52:23.116Z,26.30
2023-09-05T13:55:27.360Z,26.10
2023-09-05T13:58:30.116Z,26.04
2023-09-05T14:01:33.140Z,26.61
2023-09-05T14:04:36.165Z,26.59
2023-09-05T14:07:41.688Z,26.98
2023-09-05T14:10:47.618Z,27.16
2023-09-05T14:13:50.826Z,27.13
2023-09-05T14:16:56.187Z,27.17
2023-09-05T14:19:59.301Z,27.17
2023-09-05T14:23:02.494Z,27.71
2023-09-05T14:26:05.168Z,27.75
2023-09-05T14:29:08.796Z,27.56
2023-09-05T14:32:11.612Z,27.53
2023-09-05T14:35:14.774Z,27.03
2023-09-05T14:38:17.419Z,26.64
2023-09-05T14:41:21.595Z,26.38
2023-09-05T14:44:24.480Z,26.23
2023-09-05T14:47:27.799Z,26.00
2023-09-05T14:50:30.454Z,25.91
2023-09-05T14:53:33.481Z,25.56
2023-09-05T14:56:37.083Z,25.61
2023-09-05T14:59:40.201Z,25.57
2023-09-05T15:02:43.102Z,25.63
2023-09-05T15:05:46.167Z,25.73
2023-09-05T15:08:48.880Z,25.99
2023-09-05T15:11:51.818Z,26.08
2023-09-05T15:14:54.642Z,26.30
2023-09-05T15:17:57.689Z,26.40
2023-09-05T15:21:00.350Z,26.46
2023-09-05T15:24:07.305Z,26.34
2023-09-05T15:27:10.143Z,26.33
2023-09-05T15:30:17.206Z,26.31
2023-09-05T15:33:20.195Z,26.26
2023-09-05T15:36:23.203Z,26.21
2023-09-05T15:39:26.008Z,26.12
2023-09-05T15:42:29.312Z,26.16
2023-09-05T15:45:32.771Z,26.12
2023-09-05T15:48:36.129Z,26.06
2023-09-05T15:51:39.357Z,25.94
2023-09-05T15:54:44.840Z,25.86
2023-09-05T15:57:47.929Z,25.84
2023-09-05T16:00:52.301Z,25.74
2023-09-05T16:03:56.149Z,25.67
2023-09-05T16:06:59.033Z,25.67
2023-09-05T16:10:03.599Z,25.65
2023-09-05T16:13:09.092Z,25.57
2023-09-05T16:16:18.947Z,25.43
2023-09-05T16:19:24.531Z,25.38
2023-09-05T16:22:28.563Z,25.31
2023-09-05T16:25:31.313Z,25.31
2023-09-05T16:28:34.414Z,25.33
2023-09-05T16:31:38.292Z,25.41
2023-09-05T16:34:41.752Z,25.31
2023-09-05T16:37:44.515Z,25.08
2023-09-05T16:40:48.716Z,24.91
2023-09-05T16:43:51.419Z,24.76
2023-09-05T16:46:54.372Z,24.47
2023-09-05T16:49:57.825Z,24.11
2023-09-05T16:53:00.808Z,23.91
2023-09-05T16:56:03.509Z,23.67
2023-09-05T16:59:06.592Z,23.47
2023-09-05T17:02:09.365Z,23.26
2023-09-05T17:05:12.685Z,23.12
2023-09-05T17:08:15.348Z,22.95
2023-09-05T17:11:18.382Z,22.80
2023-09-05T17:14:21.034Z,22.61
2023-09-05T17:17:24.043Z,22.45
2023-09-05T17:20:27.132Z,22.30
2023-09-05T17:23:30.503Z,22.10
2023-09-05T17:26:33.522Z,22.07
2023-09-05T17:29:36.471Z,21.94
2023-09-05T17:32:39.257Z,21.83
2023-09-05T17:35:42.569Z,21.65
2023-09-05T17:38:45.779Z,21.46
2023-09-05T17:41:51.277Z,21.33
2023-09-05T17:44:55.704Z,21.27
2023-09-05T17:47:58.717Z,21.16
2023-09-05T17:51:02.007Z,21.13
2023-09-05T17:54:05.260Z,21.00
2023-09-05T17:57:08.033Z,20.99
2023-09-05T18:00:11.973Z,20.87
2023-09-05T18:03:15.759Z,20.76
2023-09-05T18:06:19.142Z,20.73
2023-09-05T18:09:22.167Z,20.67
2023-09-05T18:12:25.183Z,20.55
2023-09-05T18:15:28.218Z,20.50
2023-09-05T18:18:31.505Z,20.44
2023-09-05T18:21:36.840Z,20.35
2023-09-05T18:24:40.174Z,20.31
2023-09-05T18:27:45.912Z,20.28
2023-09-05T18:30:49.155Z,20.24
2023-09-05T18:33:53.229Z,20.20
2023-09-05T18:36:56.853Z,20.06
2023-09-05T18:40:01.439Z,20.06
2023-09-05T18:43:04.987Z,20.01
2023-09-05T18:46:13.951Z,19.93
2023-09-05T18:49:17.318Z,19.85
2023-09-05T18:52:20.288Z,19.69
2023-09-05T18:55:23.566Z,19.76
2023-09-05T18:58:27.050Z,19.70
2023-09-05T19:01:30.510Z,19.70
2023-09-05T19:04:33.607Z,19.66
2023-09-05T19:07:36.876Z,19.47
2023-09-05T19:10:40.022Z,19.46
2023-09-05T19:13:43.674Z,19.39
2023-09-05T19:16:46.707Z,19.41
2023-09-05T19:19:49.923Z,19.30
2023-09-05T19:22:52.640Z,19.36
2023-09-05T19:25:56.338Z,19.34
2023-09-05T19:28:59.478Z,19.33
2023-09-05T19:32:03.208Z,19.29
2023-09-05T19:35:09.601Z,19.16
2023-09-05T19:38:14.512Z,19.18
2023-09-05T19:41:18.406Z,19.15
2023-09-05T19:44:21.765Z,19.26
2023-09-05T19:47:24.471Z,19.26
2023-09-05T19:50:28.763Z,19.26
2023-09-05T19:53:31.464Z,19.21
2023-09-05T19:56:34.914Z,19.21
2023-09-05T19:59:38.471Z,19.33
2023-09-05T20:02:41.805Z,19.26
2023-09-05T20:05:45.661Z,19.28
2023-09-05T20:08:49.025Z,19.18
2023-09-05T20:11:53.862Z,19.08
2023-09-05T20:14:58.256Z,19.00
2023-09-05T20:18:01.991Z,19.04
2023-09-05T20:21:05.264Z,19.00
2023-09-05T20:24:08.969Z,18.99
2023-09-05T20:27:12.516Z,19.08
2023-09-05T20:30:16.568Z,19.09
2023-09-05T20:33:20.327Z,18.93
2023-09-05T20:36:24.093Z,18.96
2023-09-05T20:39:27.129Z,18.97
2023-09-05T20:42:30.239Z,18.97
2023-09-05T20:45:36.829Z,18.94
2023-09-05T20:48:40.266Z,18.92
2023-09-05T20:51:43.200Z,18.87
2023-09-05T20:54:46.179Z,18.80
2023-09-05T20:57:48.869Z,18.74
2023-09-05T21:00:52.889Z,18.69
2023-09-05T21:03:55.832Z,18.62
2023-09-05T21:06:59.122Z,18.45
2023-09-05T21:10:03.475Z,18.43
2023-09-05T21:13:06.742Z,18.36
2023-09-05T21:16:10.347Z,18.46
2023-09-05T21:19:13.632Z,18.37
2023-09-05T21:22:19.982Z,18.43
2023-09-05T21:25:23.047Z,18.26
2023-09-05T21:28:26.547Z,18.12
2023-09-05T21:31:29.852Z,17.98
2023-09-05T21:34:32.694Z,17.90
2023-09-05T21:37:35.926Z,17.85
2023-09-05T21:40:38.670Z,17.69
2023-09-05T21:43:41.655Z,17.68
2023-09-05T21:46:44.362Z,17.64
2023-09-05T21:49:47.418Z,17.75
2023-09-05T21:52:50.118Z,17.88
2023-09-05T21:55:52.994Z,17.66
2023-09-05T21:58:55.744Z,17.66
2023-09-05T22:01:58.855Z,17.65
2023-09-05T22:05:04.188Z,17.52
2023-09-05T22:08:08.146Z,17.55
2023-09-05T22:11:11.251Z,17.51
2023-09-05T22:14:13.965Z,17.57
2023-09-05T22:17:16.974Z,17.46
2023-09-05T22:20:24.208Z,17.55
2023-09-05T22:23:30.075Z,17.50
2023-09-05T22:26:32.720Z,17.54
2023-09-05T22:29:36.583Z,17.49
2023-09-05T22:32:40.696Z,17.32
2023-09-05T22:35:43.720Z,17.21
2023-09-05T22:38:47.242Z,17.10
2023-09-05T22:41:50.703Z,17.11
2023-09-05T22:44:53.434Z,17.10
2023-09-05T22:47:56.401Z,17.02
2023-09-05T22:50:59.153Z,16.89
2023-09-05T22:54:02.119Z,16.78
2023-09-05T22:57:05.472Z,16.70
2023-09-05T23:00:14.912Z,16.63
2023-09-05T23:03:20.444Z,16.63
2023-09-05T23:06:23.852Z,16.64
2023-09-05T23:09:27.384Z,16.58
2023-09-05T23:12:30.342Z,16.56
2023-09-05T23:15:33.146Z,16.36
2023-09-05T23:18:38.354Z,16.34
2023-09-05T23:21:45.104Z,16.31
2023-09-05T23:24:48.300Z,16.29
2023-09-05T23:27:54.180Z,16.29
2023-09-05T23:30:57.170Z,16.34
2023-09-05T23:34:00.233Z,16.23
2023-09-05T23:37:04.845Z,16.32
2023-09-05T23:40:10.103Z,16.56
2023-09-05T23:43:17.305Z,16.53
2023-09-05T23:46:20.312Z,16.38
2023-09-05T23:49:23.395Z,16.36
2023-09-05T23:52:26.328Z,16.34
2023-09-05T23:55:29.692Z,16.25
2023-09-05T23:58:33.268Z,16.24
